Time;durP1;ratioP1;P1;durP2;ratioP2;P2;SDS_P1;SDS_P2;PMS_P1;PMS_P2;Temp;Humidity;BMP_temperature;BMP_pressure;BME280_temperature;BME280_humidity;BME280_pressure;Samples;Min_cycle;Max_cycle;Signal;HPM_P1;HPM_P2
2023/01/06 00:01:09;;;;;;;4.00;1.30;;;;;;;-4.94;100.00;98902.03;5137139;28;20049;-61
2023/01/06 00:03:36;;;;;;;2.72;1.80;;;;;;;-4.65;100.00;98907.63;5137190;28;20051;-66
2023/01/06 00:06:05;;;;;;;2.78;2.22;;;;;;;-4.77;100.00;98906.03;5137503;28;20083;-64
2023/01/06 00:08:32;;;;;;;3.35;1.50;;;;;;;-4.60;100.00;98912.94;5137254;28;20051;-67
2023/01/06 00:10:59;;;;;;;2.80;1.60;;;;;;;-4.58;100.00;98894.75;5136948;28;20212;-61
2023/01/06 00:13:25;;;;;;;2.35;1.60;;;;;;;-4.63;100.00;98887.56;5137267;28;20082;-65
2023/01/06 00:15:52;;;;;;;4.63;2.33;;;;;;;-4.72;100.00;98872.34;5136853;28;20087;-62
2023/01/06 00:18:18;;;;;;;1.10;1.00;;;;;;;-4.66;100.00;98892.66;5137414;28;20043;-66
2023/01/06 00:20:49;;;;;;;1.88;1.52;;;;;;;-4.99;100.00;98878.81;5136843;28;20047;-60
2023/01/06 00:23:18;;;;;;;3.20;1.70;;;;;;;-5.15;100.00;98872.66;5137146;28;20047;-66
2023/01/06 00:25:49;;;;;;;3.13;1.90;;;;;;;-5.26;100.00;98861.19;5136854;27;20061;-61
2023/01/06 00:28:18;;;;;;;1.20;1.10;;;;;;;-5.16;100.00;98857.72;5136824;28;20055;-65
2023/01/06 00:30:44;;;;;;;2.38;1.50;;;;;;;-5.10;100.00;98858.50;5136835;27;20061;-66
2023/01/06 00:33:11;;;;;;;1.40;1.30;;;;;;;-5.28;100.00;98878.56;5136809;28;20127;-64
2023/01/06 00:35:37;;;;;;;1.60;1.33;;;;;;;-5.62;100.00;98827.53;5136907;28;20051;-66
2023/01/06 00:38:06;;;;;;;1.15;1.05;;;;;;;-6.00;100.00;98838.50;5136643;28;20137;-60
2023/01/06 00:40:34;;;;;;;1.63;1.50;;;;;;;-5.86;100.00;98844.09;5137230;27;20080;-66
2023/01/06 00:43:00;;;;;;;3.30;1.33;;;;;;;-5.80;100.00;98864.34;5136877;28;20136;-64
2023/01/06 00:45:27;;;;;;;3.03;1.33;;;;;;;-5.77;100.00;98895.06;5137197;28;20390;-63
2023/01/06 00:47:53;;;;;;;2.80;1.75;;;;;;;-5.85;100.00;98895.59;5136409;28;20043;-62
2023/01/06 00:50:21;;;;;;;7.95;1.80;;;;;;;-5.84;100.00;98932.69;5137404;27;20047;-63
2023/01/06 00:52:48;;;;;;;2.00;1.77;;;;;;;-5.62;100.00;98961.06;5140074;28;20051;-66
2023/01/06 00:55:14;;;;;;;2.08;1.90;;;;;;;-5.54;100.00;98953.34;5139619;28;20054;-66
2023/01/06 00:57:40;;;;;;;2.92;2.17;;;;;;;-5.75;100.00;98915.09;5140075;27;20043;-62
2023/01/06 01:00:08;;;;;;;1.48;1.35;;;;;;;-5.74;100.00;98935.41;5139648;28;20057;-63
2023/01/06 01:02:35;;;;;;;3.42;2.22;;;;;;;-5.97;100.00;98928.69;5140219;28;20051;-67
2023/01/06 01:05:01;;;;;;;2.58;1.90;;;;;;;-5.73;100.00;98971.72;5139926;28;20055;-66
2023/01/06 01:07:29;;;;;;;6.60;2.15;;;;;;;-5.87;100.00;98967.94;5140239;27;20138;-66
2023/01/06 01:09:55;;;;;;;4.97;2.28;;;;;;;-5.63;100.00;98991.50;5139804;28;20051;-64
2023/01/06 01:12:21;;;;;;;2.60;1.50;;;;;;;-5.75;100.00;98965.84;5140233;27;20150;-64
2023/01/06 01:14:49;;;;;;;13.95;1.58;;;;;;;-5.88;100.00;98973.53;5139653;28;20341;-64
2023/01/06 01:17:18;;;;;;;3.50;1.80;;;;;;;-6.03;100.00;98967.13;5139991;28;20319;-62
2023/01/06 01:19:45;;;;;;;3.83;2.05;;;;;;;-5.96;100.00;98996.25;5140259;28;20058;-66
2023/01/06 01:22:12;;;;;;;2.15;1.00;;;;;;;-5.70;100.00;99003.25;5139823;28;20336;-66
2023/01/06 01:24:39;;;;;;;3.38;1.95;;;;;;;-5.75;100.00;98978.41;5139835;27;20078;-64
2023/01/06 01:27:08;;;;;;;5.35;1.90;;;;;;;-5.78;100.00;98968.22;5139922;28;20108;-64
2023/01/06 01:29:34;;;;;;;4.07;1.80;;;;;;;-5.68;100.00;98945.03;5139829;27;20048;-65
2023/01/06 01:32:01;;;;;;;1.65;1.45;;;;;;;-5.97;100.00;98895.84;5139617;28;20058;-64
2023/01/06 01:34:27;;;;;;;5.25;1.45;;;;;;;-6.02;100.00;98903.88;5139778;28;20071;-63
2023/01/06 01:36:55;;;;;;;3.00;1.45;;;;;;;-6.23;100.00;98881.63;5139716;28;20062;-64
2023/01/06 01:39:24;;;;;;;3.15;1.65;;;;;;;-6.04;100.00;98897.97;5139792;28;20051;-62
2023/01/06 01:41:51;;;;;;;1.40;1.23;;;;;;;-6.34;100.00;98835.44;5139347;28;20114;-63
2023/01/06 01:44:51;;;;;;;1.27;1.05;;;;;;;-6.23;100.00;98810.41;5139189;28;20047;-59
2023/01/06 01:47:21;;;;;;;0.90;0.90;;;;;;;-6.17;100.00;98805.88;5139620;27;20083;-61
2023/01/06 01:49:50;;;;;;;1.27;1.17;;;;;;;-6.35;100.00;98785.84;5139298;28;20055;-66
2023/01/06 01:52:17;;;;;;;3.47;2.05;;;;;;;-6.24;100.00;98778.66;5139372;28;20100;-62
2023/01/06 01:54:45;;;;;;;1.95;1.67;;;;;;;-6.57;100.00;98807.38;5139019;28;20408;-64
2023/01/06 01:57:16;;;;;;;3.35;1.95;;;;;;;-6.34;100.00;98862.13;5139482;28;20294;-63
2023/01/06 01:59:45;;;;;;;2.40;1.70;;;;;;;-6.02;100.00;98898.53;5138963;28;20055;-62
2023/01/06 02:02:14;;;;;;;1.58;1.33;;;;;;;-6.15;100.00;98881.13;5138578;27;20134;-63
2023/01/06 02:04:42;;;;;;;2.85;1.90;;;;;;;-6.24;100.00;98869.38;5138854;27;20083;-60
2023/01/06 02:07:09;;;;;;;1.58;1.20;;;;;;;-6.13;100.00;98905.72;5139097;28;20051;-64
2023/01/06 02:09:42;;;;;;;2.70;2.10;;;;;;;-6.27;100.00;98894.69;5139114;28;20058;-65
2023/01/06 02:12:08;;;;;;;1.42;1.08;;;;;;;-6.13;100.00;98923.56;5139178;28;20313;-62
2023/01/06 02:14:35;;;;;;;1.85;1.65;;;;;;;-6.16;100.00;98919.56;5139158;27;20047;-63
2023/01/06 02:17:14;;;;;;;3.15;1.98;;;;;;;-6.42;100.00;98921.31;5138649;28;20432;-62
2023/01/06 02:20:12;;;;;;;3.97;1.77;;;;;;;-6.31;100.00;98925.63;5139257;28;20432;-66
2023/01/06 02:23:03;;;;;;;13.20;2.65;;;;;;;-6.19;100.00;98939.56;5138653;28;20058;-60
2023/01/06 02:25:51;;;;;;;2.17;1.50;;;;;;;-6.13;100.00;98923.56;5138751;28;20047;-66
2023/01/06 02:28:42;;;;;;;1.50;1.40;;;;;;;-6.30;100.00;98913.88;5138813;28;20116;-63
2023/01/06 02:31:44;;;;;;;2.63;1.60;;;;;;;-6.40;100.00;98904.00;5138422;28;20070;-65
2023/01/06 02:34:22;;;;;;;5.60;1.90;;;;;;;-6.36;100.00;98940.81;5124920;28;20058;-63
2023/01/06 02:37:01;;;;;;;2.53;1.55;;;;;;;-6.57;100.00;98903.38;5138697;28;20134;-66
2023/01/06 02:39:39;;;;;;;2.10;1.85;;;;;;;-6.53;100.00;98911.66;5138424;28;20142;-61
2023/01/06 02:42:16;;;;;;;2.00;1.55;;;;;;;-6.22;100.00;98928.63;5138717;28;20517;-64
2023/01/06 02:44:53;;;;;;;3.22;1.75;;;;;;;-6.67;100.00;98863.31;5138265;28;20051;-66
2023/01/06 02:47:30;;;;;;;1.90;1.50;;;;;;;-6.33;100.00;98881.59;5138270;28;20043;-65
2023/01/06 02:50:04;;;;;;;3.20;2.20;;;;;;;-6.54;100.00;98814.84;5138451;28;20054;-63
2023/01/06 02:52:41;;;;;;;2.03;1.83;;;;;;;-6.55;100.00;98823.91;5138507;28;20061;-60
2023/01/06 02:55:12;;;;;;;2.35;1.65;;;;;;;-7.02;100.00;98784.81;5138605;28;20086;-61
2023/01/06 02:57:44;;;;;;;3.30;2.40;;;;;;;-6.73;100.00;98809.19;5138025;28;20093;-64
2023/01/06 03:00:15;;;;;;;3.20;2.33;;;;;;;-6.63;100.00;98821.75;5138421;27;20047;-64
2023/01/06 03:02:47;;;;;;;3.70;2.03;;;;;;;-6.70;100.00;98819.31;5137848;28;20051;-62
2023/01/06 03:05:16;;;;;;;2.78;2.08;;;;;;;-6.79;100.00;98794.25;5138431;28;20043;-63
2023/01/06 03:07:44;;;;;;;3.88;2.08;;;;;;;-6.71;100.00;98768.94;5137962;28;20050;-62
2023/01/06 03:10:15;;;;;;;1.95;1.77;;;;;;;-6.69;100.00;98764.94;5137761;28;20043;-61
2023/01/06 03:12:50;;;;;;;3.38;2.00;;;;;;;-7.00;100.00;98699.25;5137716;27;20053;-62
2023/01/06 03:15:17;;;;;;;4.07;2.13;;;;;;;-7.08;100.00;98694.44;5137755;28;20057;-65
2023/01/06 03:17:44;;;;;;;1.80;1.63;;;;;;;-7.05;100.00;98700.06;5137980;28;20057;-61
2023/01/06 03:20:12;;;;;;;5.07;2.28;;;;;;;-6.65;100.00;98712.69;5137756;28;20051;-59
2023/01/06 03:22:39;;;;;;;2.47;1.60;;;;;;;-6.89;100.00;98674.28;5137968;27;20051;-65
2023/01/06 03:25:08;;;;;;;3.20;2.13;;;;;;;-7.05;100.00;98678.75;5137590;28;20042;-62
2023/01/06 03:27:34;;;;;;;3.78;2.10;;;;;;;-6.98;100.00;98700.63;5138366;27;20195;-65
2023/01/06 03:30:01;;;;;;;3.63;1.70;;;;;;;-6.99;100.00;98703.56;5137430;28;20493;-62
2023/01/06 03:32:35;;;;;;;2.50;2.00;;;;;;;-7.03;100.00;98697.94;5137401;28;20421;-61
2023/01/06 03:35:14;;;;;;;4.95;2.20;;;;;;;-6.92;100.00;98656.13;5137828;28;20154;-65
2023/01/06 03:37:48;;;;;;;3.47;1.90;;;;;;;-7.02;100.00;98603.63;5137648;28;20047;-63
2023/01/06 03:40:26;;;;;;;4.25;2.05;;;;;;;-7.22;100.00;98545.78;5137762;27;20055;-63
2023/01/06 03:43:14;;;;;;;3.95;1.77;;;;;;;-7.29;100.00;98531.13;5137410;28;20046;-62
2023/01/06 03:46:15;;;;;;;1.52;1.42;;;;;;;-7.27;100.00;98500.47;5137817;27;20051;-66
2023/01/06 03:48:52;;;;;;;4.03;2.42;;;;;;;-7.19;100.00;98497.31;5126593;28;20058;-62
2023/01/06 03:51:32;;;;;;;2.45;2.13;;;;;;;-7.32;100.00;98481.06;5137302;28;20055;-65
2023/01/06 03:54:04;;;;;;;4.18;2.33;;;;;;;-7.36;100.00;98483.44;5137643;27;20117;-62
2023/01/06 03:56:34;;;;;;;4.35;1.98;;;;;;;-7.52;100.00;98473.81;5137191;28;20051;-62
2023/01/06 03:59:03;;;;;;;2.65;2.15;;;;;;;-7.60;100.00;98475.13;5137942;28;20084;-66
2023/01/06 04:01:31;;;;;;;3.83;2.30;;;;;;;-7.47;100.00;98492.47;5136950;27;20050;-63
2023/01/06 04:03:57;;;;;;;5.85;2.05;;;;;;;-7.72;100.00;98488.69;5137065;28;20090;-66
2023/01/06 04:06:24;;;;;;;4.07;1.77;;;;;;;-7.44;100.00;98511.38;5137393;28;20324;-66
2023/01/06 04:08:50;;;;;;;4.13;2.15;;;;;;;-7.41;100.00;98518.03;5137223;28;20079;-61
2023/01/06 04:14:02;;;;;;;4.50;2.17;;;;;;;-7.58;100.00;98473.81;5137330;28;20081;-64
2023/01/06 04:16:28;;;;;;;3.97;2.10;;;;;;;-7.52;100.00;98465.84;5137243;28;20400;-61
2023/01/06 04:18:55;;;;;;;3.28;2.15;;;;;;;-7.42;100.00;98466.66;5137222;28;20360;-66
2023/01/06 04:21:21;;;;;;;2.63;1.60;;;;;;;-7.80;100.00;98459.91;5137583;28;20093;-63
2023/01/06 04:23:48;;;;;;;2.53;1.67;;;;;;;-7.84;100.00;98466.81;5136875;28;20396;-61
2023/01/06 04:26:14;;;;;;;2.85;2.22;;;;;;;-7.71;100.00;98468.19;5139711;27;20043;-65
2023/01/06 04:28:41;;;;;;;2.90;1.92;;;;;;;-7.89;100.00;98438.34;5140704;27;20043;-62
2023/01/06 04:31:08;;;;;;;5.80;2.20;;;;;;;-8.18;100.00;98422.03;5140509;28;20047;-63
2023/01/06 04:33:34;;;;;;;15.10;2.03;;;;;;;-7.93;100.00;98431.97;5140369;28;20085;-66
2023/01/06 04:36:00;;;;;;;4.68;2.47;;;;;;;-7.92;100.00;98427.44;5140439;28;20397;-61
2023/01/06 04:38:26;;;;;;;4.82;2.20;;;;;;;-7.90;100.00;98431.41;5140579;28;20103;-66
2023/01/06 04:40:53;;;;;;;3.90;2.03;;;;;;;-8.12;100.00;98426.31;5140345;28;20055;-58
2023/01/06 04:43:19;;;;;;;4.57;2.50;;;;;;;-8.17;100.00;98433.47;5140410;28;20397;-66
2023/01/06 04:45:46;;;;;;;2.35;2.00;;;;;;;-8.04;100.00;98446.28;5140293;28;20051;-61
2023/01/06 04:48:13;;;;;;;2.17;1.75;;;;;;;-8.23;100.00;98445.13;5140471;27;20146;-64
2023/01/06 04:50:39;;;;;;;5.13;2.10;;;;;;;-8.25;100.00;98457.91;5139978;28;20083;-62
2023/01/06 04:53:06;;;;;;;8.90;3.33;;;;;;;-8.40;100.00;98446.16;5140481;28;20053;-61
2023/01/06 04:55:36;;;;;;;2.50;1.33;;;;;;;-8.38;100.00;98452.03;5139918;28;20058;-64
2023/01/06 04:58:04;;;;;;;9.55;3.22;;;;;;;-8.29;100.00;98473.59;5140145;28;20320;-66
2023/01/06 05:00:30;;;;;;;5.13;2.22;;;;;;;-8.45;100.00;98474.59;5139875;28;20483;-61
2023/01/06 05:02:56;;;;;;;3.75;2.00;;;;;;;-8.44;100.00;98470.88;5139835;28;20107;-65
2023/01/06 05:05:22;;;;;;;7.85;3.30;;;;;;;-8.49;100.00;98463.69;5140008;28;20138;-59
2023/01/06 05:07:48;;;;;;;4.35;2.10;;;;;;;-8.27;100.00;98465.34;5139720;28;20061;-65
2023/01/06 05:10:15;;;;;;;10.05;2.72;;;;;;;-8.51;100.00;98460.47;5139960;28;20050;-62
2023/01/06 05:12:41;;;;;;;7.18;1.27;;;;;;;-8.45;100.00;98488.69;5139410;28;20051;-68
2023/01/06 05:15:09;;;;;;;2.58;2.10;;;;;;;-8.83;100.00;98484.44;5139844;28;20084;-65
2023/01/06 05:17:36;;;;;;;3.30;2.35;;;;;;;-8.80;100.00;98476.75;5139619;28;20051;-71
2023/01/06 05:20:03;;;;;;;7.82;2.30;;;;;;;-8.94;100.00;98488.09;5140052;27;20329;-68
2023/01/06 05:22:29;;;;;;;5.47;3.00;;;;;;;-8.79;100.00;98501.50;5139387;28;20062;-63
2023/01/06 05:24:55;;;;;;;4.63;2.35;;;;;;;-8.67;100.00;98509.25;5139759;28;20051;-70
2023/01/06 05:27:22;;;;;;;3.63;2.75;;;;;;;-8.83;100.00;98503.84;5139442;28;20055;-63
2023/01/06 05:29:48;;;;;;;3.75;1.65;;;;;;;-8.96;100.00;98500.81;5139430;28;20050;-67
2023/01/06 05:32:15;;;;;;;1.67;1.50;;;;;;;-9.08;100.00;98496.47;5139412;27;20429;-63
2023/01/06 05:34:41;;;;;;;2.60;1.88;;;;;;;-9.23;100.00;98496.34;5139181;28;20047;-67
2023/01/06 05:37:07;;;;;;;6.85;4.57;;;;;;;-9.38;100.00;98477.63;5138119;27;20086;-64
2023/01/06 05:39:34;;;;;;;4.63;2.15;;;;;;;-9.21;100.00;98494.25;5139175;28;20114;-67
2023/01/06 05:42:00;;;;;;;5.47;2.38;;;;;;;-9.24;100.00;98487.56;5139494;28;20434;-63
2023/01/06 05:44:28;;;;;;;4.22;2.20;;;;;;;-9.21;100.00;98480.19;5138983;28;20065;-63
2023/01/06 05:46:54;;;;;;;2.97;1.55;;;;;;;-9.22;100.00;98489.19;5139395;27;20050;-68
2023/01/06 05:49:21;;;;;;;5.80;2.33;;;;;;;-9.04;100.00;98481.63;5139268;28;20075;-63
2023/01/06 05:51:47;;;;;;;5.63;1.95;;;;;;;-9.48;100.00;98470.38;5139258;27;20058;-63
2023/01/06 05:54:14;;;;;;;2.83;1.60;;;;;;;-9.66;100.00;98460.09;5139279;28;20480;-68
2023/01/06 05:56:40;;;;;;;6.40;2.58;;;;;;;-9.75;100.00;98465.09;5138868;28;20138;-61
2023/01/06 05:59:06;;;;;;;2.88;1.83;;;;;;;-9.78;100.00;98481.50;5139398;28;20051;-71
2023/01/06 06:01:32;;;;;;;4.97;1.92;;;;;;;-9.52;100.00;98493.97;5138743;28;20110;-65
2023/01/06 06:03:59;;;;;;;5.13;2.40;;;;;;;-9.67;100.00;98493.81;5138947;28;20055;-72
2023/01/06 06:06:27;;;;;;;3.13;2.25;;;;;;;-9.71;100.00;98482.09;5138796;28;20409;-73
2023/01/06 06:08:54;;;;;;;5.75;2.28;;;;;;;-9.95;100.00;98479.72;5138946;28;20079;-74
2023/01/06 06:11:21;;;;;;;5.15;2.53;;;;;;;-9.84;100.00;98479.84;5138580;28;20146;-64
2023/01/06 06:13:48;;;;;;;4.82;2.13;;;;;;;-9.87;100.00;98493.59;5139000;28;20317;-67
2023/01/06 06:16:16;;;;;;;3.50;2.42;;;;;;;-10.02;100.00;98487.06;5138487;28;20050;-71
2023/01/06 06:18:43;;;;;;;2.47;1.27;;;;;;;-10.02;100.00;98489.72;5138765;28;20047;-60
2023/01/06 06:21:10;;;;;;;3.88;2.15;;;;;;;-10.19;100.00;98505.69;5138855;28;20065;-69
2023/01/06 06:23:38;;;;;;;5.57;2.03;;;;;;;-10.31;100.00;98510.31;5138378;28;20142;-66
2023/01/06 06:26:05;;;;;;;5.80;2.20;;;;;;;-10.27;100.00;98515.94;5138631;28;20054;-60
2023/01/06 06:28:32;;;;;;;5.03;3.03;;;;;;;-10.07;100.00;98539.22;5138869;28;20344;-64
2023/01/06 06:31:03;;;;;;;2.22;1.58;;;;;;;-10.02;100.00;98550.69;5138523;28;20065;-69
2023/01/06 06:33:29;;;;;;;4.82;2.33;;;;;;;-9.89;100.00;98556.69;5138269;28;20108;-69
2023/01/06 06:35:56;;;;;;;8.80;3.13;;;;;;;-9.65;100.00;98575.81;5138844;28;20388;-65
2023/01/06 06:38:23;;;;;;;10.73;3.00;;;;;;;-9.88;100.00;98579.50;5138072;28;20051;-65
2023/01/06 06:40:50;;;;;;;6.53;2.55;;;;;;;-9.81;100.00;98580.13;5138670;28;20368;-65
2023/01/06 06:43:16;;;;;;;2.58;1.80;;;;;;;-9.82;100.00;98581.19;5138145;28;20082;-66
2023/01/06 06:45:44;;;;;;;5.38;2.60;;;;;;;-9.65;100.00;98583.78;5138435;28;20207;-69
2023/01/06 06:48:10;;;;;;;5.97;2.88;;;;;;;-9.66;100.00;98566.22;5137416;27;20096;-69
2023/01/06 06:50:36;;;;;;;9.13;2.60;;;;;;;-9.73;100.00;98579.69;5138076;28;20051;-66
2023/01/06 06:53:03;;;;;;;2.42;1.85;;;;;;;-9.69;100.00;98580.81;5138121;27;20054;-68
2023/01/06 06:55:29;;;;;;;2.67;2.30;;;;;;;-9.88;100.00;98574.22;5138022;28;20054;-64
2023/01/06 06:57:56;;;;;;;3.95;2.45;;;;;;;-9.99;100.00;98563.47;5138198;27;20050;-65
2023/01/06 07:00:23;;;;;;;9.13;3.55;;;;;;;-10.19;100.00;98547.31;5137721;28;20083;-62
2023/01/06 07:02:49;;;;;;;3.53;1.77;;;;;;;-10.14;100.00;98555.31;5137896;28;20051;-60
2023/01/06 07:05:15;;;;;;;5.47;2.67;;;;;;;-10.22;100.00;98561.84;5137751;28;20139;-69
2023/01/06 07:07:42;;;;;;;5.00;3.20;;;;;;;-10.12;100.00;98565.69;5138103;28;20083;-70
2023/01/06 07:10:12;;;;;;;6.32;2.95;;;;;;;-10.09;100.00;98562.53;5136888;28;20096;-70
2023/01/06 07:12:39;;;;;;;2.85;2.38;;;;;;;-10.20;100.00;98569.53;5138252;28;20055;-67
2023/01/06 07:15:07;;;;;;;3.80;2.30;;;;;;;-10.11;100.00;98576.03;5137476;27;20055;-71
2023/01/06 07:17:34;;;;;;;6.30;2.90;;;;;;;-9.77;100.00;98570.63;5137501;28;20087;-63
2023/01/06 07:20:00;;;;;;;7.05;2.53;;;;;;;-9.84;100.00;98560.19;5137548;28;20058;-65
2023/01/06 07:22:26;;;;;;;11.18;3.55;;;;;;;-10.11;100.00;98569.94;5137419;28;20055;-68
2023/01/06 07:24:53;;;;;;;4.65;2.15;;;;;;;-10.63;100.00;98581.66;5137490;27;20093;-64
2023/01/06 07:27:19;;;;;;;5.90;3.35;;;;;;;-10.28;100.00;98585.91;5137359;28;20450;-69
2023/01/06 07:29:45;;;;;;;6.80;2.97;;;;;;;-10.87;100.00;98598.75;5137627;28;20414;-65
2023/01/06 07:32:12;;;;;;;2.10;1.98;;;;;;;-10.81;100.00;98603.91;5137208;28;20054;-65
2023/01/06 07:34:38;;;;;;;8.20;1.52;;;;;;;-10.71;100.00;98625.25;5137731;28;20138;-63
2023/01/06 07:37:04;;;;;;;2.25;1.80;;;;;;;-10.88;100.00;98629.72;5137266;28;20138;-67
2023/01/06 07:39:31;;;;;;;12.63;2.53;;;;;;;-10.85;100.00;98639.84;5137618;28;20043;-64
2023/01/06 07:41:57;;;;;;;11.32;3.22;;;;;;;-10.93;100.00;98643.69;5137514;28;20070;-67
2023/01/06 07:44:23;;;;;;;6.68;2.42;;;;;;;-11.04;100.00;98649.84;5137427;28;20061;-69
2023/01/06 07:46:49;;;;;;;5.40;2.78;;;;;;;-11.01;100.00;98659.16;5137295;27;20051;-73
2023/01/06 07:49:16;;;;;;;3.72;2.22;;;;;;;-10.87;100.00;98679.00;5137280;28;20054;-66
2023/01/06 07:51:43;;;;;;;9.98;3.55;;;;;;;-10.91;100.00;98662.78;5137193;27;20150;-59
2023/01/06 07:54:09;;;;;;;1.88;1.77;;;;;;;-10.65;100.00;98665.09;5137280;28;20051;-66
2023/01/06 07:56:35;;;;;;;3.90;2.40;;;;;;;-10.82;100.00;98660.56;5137275;28;20099;-73
2023/01/06 07:59:02;;;;;;;8.52;3.08;;;;;;;-11.00;100.00;98680.06;5136688;27;20051;-68
2023/01/06 08:01:28;;;;;;;3.83;2.22;;;;;;;-11.08;100.00;98691.06;5136003;28;20057;-66
2023/01/06 08:03:54;;;;;;;7.00;2.35;;;;;;;-10.91;100.00;98688.47;5136937;28;20082;-63
2023/01/06 08:06:21;;;;;;;2.25;1.95;;;;;;;-11.06;100.00;98711.97;5137271;28;20050;-68
2023/01/06 08:08:47;;;;;;;5.80;2.45;;;;;;;-11.13;100.00;98712.13;5137021;28;20047;-61
2023/01/06 08:11:13;;;;;;;2.42;2.00;;;;;;;-10.71;100.00;98704.72;5137242;27;20103;-72
2023/01/06 08:13:40;;;;;;;2.60;2.30;;;;;;;-11.36;100.00;98718.31;5136542;28;20108;-62
2023/01/06 08:16:07;;;;;;;7.43;3.58;;;;;;;-10.88;100.00;98709.16;5136746;28;20051;-67
2023/01/06 08:18:33;;;;;;;7.45;3.72;;;;;;;-11.15;100.00;98712.38;5136886;28;20047;-67
2023/01/06 08:21:00;;;;;;;3.28;2.17;;;;;;;-10.94;100.00;98712.75;5136170;28;20065;-63
2023/01/06 08:23:27;;;;;;;5.45;2.45;;;;;;;-10.77;100.00;98720.75;5136875;28;20328;-65
2023/01/06 08:26:01;;;;;;;8.35;2.40;;;;;;;-10.84;100.00;98738.63;5136318;28;20054;-58
2023/01/06 08:28:27;;;;;;;8.52;2.83;;;;;;;-10.95;100.00;98764.91;5136658;28;20429;-62
2023/01/06 08:30:53;;;;;;;3.38;2.60;;;;;;;-10.80;100.00;98788.22;5136420;28;20051;-64
2023/01/06 08:33:22;;;;;;;5.32;2.55;;;;;;;-10.83;100.00;98780.75;5136927;27;20408;-63
2023/01/06 08:35:49;;;;;;;5.68;2.65;;;;;;;-10.97;100.00;98797.94;5136448;28;20055;-62
2023/01/06 08:38:15;;;;;;;3.25;1.75;;;;;;;-10.81;100.00;98814.94;5136924;28;20373;-59
2023/01/06 08:40:42;;;;;;;4.22;2.38;;;;;;;-11.21;100.00;98826.28;5136348;28;20063;-63
2023/01/06 08:43:08;;;;;;;5.22;2.05;;;;;;;-11.01;100.00;98832.03;5136282;28;20055;-63
2023/01/06 08:45:37;;;;;;;7.50;1.92;;;;;;;-11.00;100.00;98844.22;5136441;27;20047;-63
2023/01/06 08:48:04;;;;;;;2.05;1.85;;;;;;;-10.50;100.00;98842.84;5135975;28;20043;-66
2023/01/06 08:50:30;;;;;;;8.20;3.65;;;;;;;-10.65;100.00;98861.91;5136377;27;20062;-63
2023/01/06 08:52:56;;;;;;;7.47;3.15;;;;;;;-10.61;100.00;98886.06;5136257;28;20381;-57
2023/01/06 08:55:23;;;;;;;2.67;1.88;;;;;;;-10.78;100.00;98900.03;5136339;28;20449;-64
2023/01/06 08:57:50;;;;;;;6.72;2.88;;;;;;;-10.74;100.00;98940.09;5136134;28;20354;-59
2023/01/06 09:00:16;;;;;;;7.50;2.70;;;;;;;-10.16;100.00;98941.81;5136090;28;20094;-61
2023/01/06 09:02:43;;;;;;;6.68;3.10;;;;;;;-10.43;100.00;98952.97;5135918;28;20043;-63
2023/01/06 09:05:09;;;;;;;6.78;3.33;;;;;;;-10.47;100.00;98962.41;5136305;28;20146;-57
2023/01/06 09:07:35;;;;;;;8.63;2.75;;;;;;;-10.88;100.00;98968.66;5135241;28;20105;-64
2023/01/06 09:10:02;;;;;;;7.45;2.85;;;;;;;-10.79;100.00;98959.34;5136060;28;20051;-60
2023/01/06 09:12:28;;;;;;;7.78;2.97;;;;;;;-10.83;100.00;98946.78;5138795;27;20047;-58
2023/01/06 09:14:55;;;;;;;9.52;3.55;;;;;;;-10.99;100.00;98953.59;5139283;28;20061;-62
2023/01/06 09:17:21;;;;;;;7.20;2.70;;;;;;;-11.02;100.00;98952.19;5139379;28;20086;-63
2023/01/06 09:19:47;;;;;;;5.40;2.72;;;;;;;-11.13;100.00;98947.69;5139330;28;20065;-61
2023/01/06 09:22:13;;;;;;;9.55;3.58;;;;;;;-11.24;100.00;98953.78;5139615;28;20341;-60
2023/01/06 09:24:40;;;;;;;7.65;3.30;;;;;;;-11.09;100.00;98940.09;5139160;28;20332;-62
2023/01/06 09:27:06;;;;;;;2.92;2.40;;;;;;;-11.19;100.00;98941.50;5139384;28;20062;-63
2023/01/06 09:29:32;;;;;;;6.47;2.45;;;;;;;-11.25;100.00;98954.81;5139141;28;20057;-60
2023/01/06 09:31:59;;;;;;;3.65;2.50;;;;;;;-11.29;100.00;98937.81;5139514;28;20059;-64
2023/01/06 09:34:25;;;;;;;14.30;3.22;;;;;;;-11.31;100.00;98926.63;5139105;28;20051;-60
2023/01/06 09:36:52;;;;;;;6.07;2.85;;;;;;;-11.36;100.00;98916.75;5139455;28;20068;-66
2023/01/06 09:39:18;;;;;;;6.18;2.97;;;;;;;-11.25;100.00;98915.13;5139355;28;20394;-59
2023/01/06 09:42:15;;;;;;;10.45;4.25;;;;;;;-11.37;100.00;98907.97;5139064;28;20365;-63
2023/01/06 09:44:47;;;;;;;11.85;3.38;;;;;;;-11.17;100.00;98912.13;5135825;28;20046;-64
2023/01/06 09:47:19;;;;;;;3.10;2.50;;;;;;;-10.90;100.00;98909.81;5138718;28;20145;-64
2023/01/06 09:49:52;;;;;;;4.60;2.30;;;;;;;-10.93;100.00;98921.69;5138612;27;20043;-61
2023/01/06 09:52:26;;;;;;;8.95;3.10;;;;;;;-10.82;100.00;98914.78;5138761;28;20137;-59
2023/01/06 09:54:57;;;;;;;8.05;3.10;;;;;;;-10.78;100.00;98931.81;5139828;27;20043;-65
2023/01/06 09:57:30;;;;;;;7.90;3.33;;;;;;;-10.98;100.00;98937.47;5138794;28;20119;-63
2023/01/06 09:59:59;;;;;;;3.95;2.15;;;;;;;-10.65;100.00;98927.31;5138823;28;20047;-63
2023/01/06 10:02:30;;;;;;;7.18;3.08;;;;;;;-10.76;100.00;98935.03;5138609;28;20090;-61
2023/01/06 10:04:57;;;;;;;5.15;2.78;;;;;;;-10.98;100.00;98928.72;5138877;28;20066;-61
2023/01/06 10:07:29;;;;;;;4.90;1.88;;;;;;;-10.77;100.00;98920.16;5139127;28;20058;-62
2023/01/06 10:10:11;;;;;;;2.95;1.98;;;;;;;-11.04;100.00;98921.69;5138657;28;20061;-59
2023/01/06 10:12:53;;;;;;;6.28;3.00;;;;;;;-11.01;100.00;98918.59;5138871;28;20054;-61
2023/01/06 10:15:30;;;;;;;3.08;2.15;;;;;;;-10.78;100.00;98915.91;5139025;28;20115;-62
2023/01/06 10:18:26;;;;;;;4.65;2.30;;;;;;;-10.53;100.00;98905.06;5138385;28;20051;-58
2023/01/06 10:21:00;;;;;;;6.03;2.45;;;;;;;-10.46;100.00;98924.28;5132024;27;20055;-62
2023/01/06 10:23:42;;;;;;;5.10;3.42;;;;;;;-10.66;100.00;98934.47;5137403;27;20055;-63
2023/01/06 10:26:12;;;;;;;6.10;3.03;;;;;;;-10.13;100.00;98928.06;5138652;28;20091;-61
2023/01/06 10:28:42;;;;;;;3.67;2.33;;;;;;;-9.88;100.00;98929.59;5138062;27;20332;-60
2023/01/06 10:31:13;;;;;;;7.35;2.78;;;;;;;-10.37;100.00;98945.91;5138149;28;20051;-61
2023/01/06 10:33:45;;;;;;;7.10;3.08;;;;;;;-10.52;100.00;98956.22;5138437;27;20047;-60
2023/01/06 10:36:14;;;;;;;9.65;2.38;;;;;;;-10.46;100.00;98948.13;5138289;28;20168;-58
2023/01/06 10:38:43;;;;;;;2.28;1.70;;;;;;;-10.30;100.00;98948.44;5138285;28;20468;-64
2023/01/06 10:41:17;;;;;;;3.70;2.50;;;;;;;-10.53;100.00;98962.53;5137904;28;20088;-60
2023/01/06 10:43:44;;;;;;;5.20;3.30;;;;;;;-10.53;100.00;98941.31;5138365;28;20436;-62
2023/01/06 10:46:10;;;;;;;5.78;2.20;;;;;;;-10.47;100.00;98924.50;5137587;28;20062;-64
2023/01/06 10:48:38;;;;;;;2.42;1.67;;;;;;;-10.40;100.00;98949.03;5138383;27;20050;-56
2023/01/06 10:51:34;;;;;;;6.90;3.20;;;;;;;-11.31;100.00;98955.72;5137716;27;20065;-61
2023/01/06 10:54:03;;;;;;;12.88;3.67;;;;;;;-11.34;100.00;98948.25;5134719;28;20047;-64
2023/01/06 10:56:31;;;;;;;2.55;1.83;;;;;;;-11.02;100.00;98925.72;5138405;27;20082;-62
2023/01/06 10:59:05;;;;;;;5.70;3.08;;;;;;;-10.88;100.00;98915.69;5137830;28;20081;-61
2023/01/06 11:01:31;;;;;;;8.10;3.60;;;;;;;-11.10;100.00;98939.28;5138258;27;20086;-61
2023/01/06 11:04:07;;;;;;;6.85;3.03;;;;;;;-10.98;100.00;98934.00;5138457;28;20058;-61
2023/01/06 11:06:34;;;;;;;4.97;2.28;;;;;;;-10.77;100.00;98922.03;5138019;27;20090;-63
2023/01/06 11:09:07;;;;;;;5.65;2.72;;;;;;;-10.69;100.00;98927.78;5137662;28;20087;-57
2023/01/06 11:11:44;;;;;;;11.27;3.60;;;;;;;-10.75;100.00;98927.91;5137963;28;20047;-60
2023/01/06 11:14:16;;;;;;;7.00;3.53;;;;;;;-10.71;100.00;98937.78;5137890;28;20357;-64
2023/01/06 11:16:52;;;;;;;11.18;3.85;;;;;;;-10.86;100.00;98950.72;5137316;28;20055;-62
2023/01/06 11:19:24;;;;;;;5.15;2.90;;;;;;;-10.94;100.00;98966.94;5138114;27;20130;-61
2023/01/06 11:21:51;;;;;;;14.57;2.30;;;;;;;-10.87;100.00;98954.38;5137381;28;20137;-63
2023/01/06 11:24:20;;;;;;;3.88;2.38;;;;;;;-11.08;100.00;98976.13;5137736;28;20051;-61
2023/01/06 11:26:52;;;;;;;4.47;3.03;;;;;;;-10.63;100.00;98975.56;5137023;28;20061;-65
2023/01/06 11:29:24;;;;;;;6.95;3.33;;;;;;;-10.50;100.00;98984.06;5137641;28;20051;-59
2023/01/06 11:31:50;;;;;;;4.97;2.60;;;;;;;-10.42;100.00;99001.47;5137041;28;20057;-63
2023/01/06 11:34:22;;;;;;;7.32;3.30;;;;;;;-10.53;100.00;99019.00;5137074;27;20508;-64